createdAt,value
2019-06-10T00:00:41.830Z,69.70
2019-06-10T00:03:11.598Z,70.30
2019-06-10T00:05:41.399Z,69.41
2019-06-10T00:08:11.978Z,70.41
2019-06-10T00:10:42.213Z,71.79
2019-06-10T00:13:11.860Z,71.88
2019-06-10T00:15:41.190Z,71.69
2019-06-10T00:18:33.438Z,72.06
2019-06-10T00:20:40.907Z,71.27
2019-06-10T00:23:12.210Z,70.27
2019-06-10T00:25:41.459Z,70.05
2019-06-10T00:28:11.953Z,70.08
2019-06-10T00:30:41.227Z,70.51
2019-06-10T00:33:12.337Z,70.85
2019-06-10T00:35:41.164Z,69.98
2019-06-10T00:38:13.904Z,70.26
2019-06-10T00:40:41.504Z,70.13
2019-06-10T00:43:13.295Z,69.82
2019-06-10T00:45:41.172Z,71.21
2019-06-10T00:48:21.381Z,72.06
2019-06-10T00:50:41.436Z,72.23
2019-06-10T00:53:13.961Z,71.99
2019-06-10T00:55:41.620Z,71.30
2019-06-10T00:58:13.622Z,72.53
2019-06-10T01:00:41.353Z,73.39
2019-06-10T01:03:13.447Z,72.81
2019-06-10T01:05:42.047Z,73.19
2019-06-10T01:08:13.994Z,71.91
2019-06-10T01:10:44.026Z,72.92
2019-06-10T01:13:13.530Z,72.98
2019-06-10T01:15:42.156Z,73.05
2019-06-10T01:18:30.320Z,73.38
2019-06-10T01:20:41.515Z,73.53
2019-06-10T01:23:13.545Z,73.66
2019-06-10T01:25:42.222Z,74.03
2019-06-10T01:28:13.310Z,71.81
2019-06-10T01:30:41.316Z,73.08
2019-06-10T01:33:11.411Z,72.11
2019-06-10T01:35:41.414Z,72.40
2019-06-10T01:38:12.844Z,71.40
2019-06-10T01:40:42.157Z,70.65
2019-06-10T01:43:13.284Z,70.17
2019-06-10T01:45:41.984Z,69.61
2019-06-10T01:48:13.376Z,69.91
2019-06-10T01:50:40.892Z,68.76
2019-06-10T01:53:12.646Z,68.87
2019-06-10T01:55:41.848Z,72.27
2019-06-10T01:58:12.785Z,72.33
2019-06-10T02:00:44.402Z,72.07
2019-06-10T02:03:16.248Z,72.37
2019-06-10T02:05:43.212Z,72.93
2019-06-10T02:08:14.563Z,73.13
2019-06-10T02:10:42.086Z,73.52
2019-06-10T02:13:14.764Z,74.62
2019-06-10T02:15:41.726Z,74.01
2019-06-10T02:18:12.293Z,73.14
2019-06-10T02:20:41.219Z,73.86
2019-06-10T02:23:12.350Z,72.98
2019-06-10T02:25:41.199Z,74.27
2019-06-10T02:28:13.044Z,74.59
2019-06-10T02:30:50.224Z,75.14
2019-06-10T02:33:12.700Z,74.44
2019-06-10T02:35:48.618Z,73.06
2019-06-10T02:38:13.308Z,74.14
2019-06-10T02:40:43.316Z,73.18
2019-06-10T02:43:17.560Z,72.32
2019-06-10T02:45:44.457Z,71.83
2019-06-10T02:48:16.106Z,71.69
2019-06-10T02:50:53.959Z,72.33
2019-06-10T02:53:30.131Z,73.48
2019-06-10T02:55:54.097Z,73.75
2019-06-10T02:58:30.397Z,73.02
2019-06-10T03:00:54.555Z,73.41
2019-06-10T03:03:35.315Z,73.21
2019-06-10T03:05:54.071Z,74.58
2019-06-10T03:08:28.657Z,74.91
2019-06-10T03:10:54.678Z,74.24
2019-06-10T03:13:25.196Z,74.48
2019-06-10T03:15:55.359Z,73.28
2019-06-10T03:18:24.747Z,73.13
2019-06-10T03:20:53.985Z,70.93
2019-06-10T03:23:23.312Z,72.46
2019-06-10T03:26:00.336Z,71.89
2019-06-10T03:28:28.894Z,73.49
2019-06-10T03:30:59.003Z,73.14
2019-06-10T03:33:39.337Z,73.83
2019-06-10T03:35:58.315Z,73.23
2019-06-10T03:38:28.208Z,72.14
2019-06-10T03:40:56.846Z,72.87
2019-06-10T03:43:26.690Z,72.53
2019-06-10T03:45:55.508Z,72.48
2019-06-10T03:48:25.604Z,73.43
2019-06-10T03:50:54.229Z,72.17
2019-06-10T03:53:24.352Z,73.26
2019-06-10T03:55:52.882Z,72.33
2019-06-10T03:58:22.073Z,70.20
2019-06-10T04:00:52.286Z,70.74
2019-06-10T04:03:23.876Z,72.91
2019-06-10T04:05:52.707Z,72.91
2019-06-10T04:08:23.275Z,71.65
2019-06-10T04:10:52.107Z,71.86
2019-06-10T04:13:23.642Z,71.34
2019-06-10T04:15:53.294Z,72.86
2019-06-10T04:18:24.185Z,74.16
2019-06-10T04:20:52.871Z,74.78
2019-06-10T04:23:23.823Z,74.18
2019-06-10T04:25:52.699Z,74.47
2019-06-10T04:28:24.062Z,73.53
2019-06-10T04:30:53.549Z,74.63
2019-06-10T04:33:23.300Z,75.00
2019-06-10T04:35:52.134Z,75.49
2019-06-10T04:38:22.963Z,75.32
2019-06-10T04:40:52.511Z,73.18
2019-06-10T04:43:23.399Z,74.92
2019-06-10T04:45:52.788Z,73.03
2019-06-10T04:48:23.527Z,75.37
2019-06-10T04:50:53.398Z,74.29
2019-06-10T04:53:23.691Z,74.40
2019-06-10T04:55:52.232Z,76.15
2019-06-10T04:58:23.773Z,75.87
2019-06-10T05:00:52.356Z,77.02
2019-06-10T05:03:23.143Z,75.24
2019-06-10T05:05:52.629Z,74.96
2019-06-10T05:08:23.523Z,74.96
2019-06-10T05:10:52.951Z,73.46
2019-06-10T05:13:23.808Z,71.82
2019-06-10T05:15:52.677Z,73.64
2019-06-10T05:18:23.957Z,74.60
2019-06-10T05:20:58.272Z,72.87
2019-06-10T05:23:23.869Z,70.10
2019-06-10T05:25:56.086Z,72.37
2019-06-10T05:28:24.476Z,72.37
2019-06-10T05:30:53.234Z,74.18
2019-06-10T05:33:23.114Z,73.25
2019-06-10T05:35:52.955Z,72.92
2019-06-10T05:38:24.021Z,70.65
2019-06-10T05:40:52.192Z,70.50
2019-06-10T05:43:22.309Z,72.61
2019-06-10T05:45:52.980Z,73.85
2019-06-10T05:48:22.653Z,72.10
2019-06-10T05:51:00.242Z,71.53
2019-06-10T05:53:23.041Z,70.21
2019-06-10T05:55:52.953Z,69.80
2019-06-10T05:58:23.550Z,68.04
2019-06-10T06:00:53.121Z,69.62
2019-06-10T06:03:22.996Z,67.57
2019-06-10T06:05:52.581Z,67.35
2019-06-10T06:08:22.778Z,67.84
2019-06-10T06:10:52.742Z,67.79
2019-06-10T06:13:23.238Z,67.41
2019-06-10T06:15:52.808Z,69.29
2019-06-10T06:18:22.576Z,69.06
2019-06-10T06:20:52.607Z,68.39
2019-06-10T06:23:23.148Z,69.87
2019-06-10T06:25:53.216Z,70.12
2019-06-10T06:28:22.966Z,70.74
2019-06-10T06:30:52.827Z,70.24
2019-06-10T06:33:22.136Z,69.63
2019-06-10T06:35:52.440Z,71.05
2019-06-10T06:38:22.445Z,70.64
2019-06-10T06:40:53.706Z,71.17
2019-06-10T06:43:22.185Z,71.41
2019-06-10T06:45:53.026Z,70.75
2019-06-10T06:48:22.719Z,70.61
2019-06-10T06:51:03.994Z,69.15
2019-06-10T06:53:32.239Z,68.50
2019-06-10T06:55:55.422Z,69.80
2019-06-10T06:58:23.158Z,69.03
2019-06-10T07:01:01.914Z,68.23
2019-06-10T07:03:22.998Z,69.57
2019-06-10T07:05:53.072Z,68.53
2019-06-10T07:08:22.801Z,68.64
2019-06-10T07:10:52.328Z,69.17
2019-06-10T07:13:22.211Z,69.41
2019-06-10T07:15:53.337Z,69.00
2019-06-10T07:18:23.215Z,68.68
2019-06-10T07:20:53.930Z,68.01
2019-06-10T07:23:22.563Z,67.82
2019-06-10T07:25:53.210Z,68.82
2019-06-10T07:28:23.019Z,68.71
2019-06-10T07:30:55.092Z,67.09
2019-06-10T07:33:22.649Z,68.10
2019-06-10T07:35:52.818Z,68.54
2019-06-10T07:38:23.085Z,68.04
2019-06-10T07:40:53.010Z,67.50
2019-06-10T07:43:23.141Z,67.22
2019-06-10T07:45:53.357Z,67.52
2019-06-10T07:48:22.316Z,66.81
2019-06-10T07:50:53.196Z,66.42
2019-06-10T07:53:22.285Z,64.87
2019-06-10T07:55:53.393Z,65.31
2019-06-10T07:58:22.471Z,64.95
2019-06-10T08:00:53.370Z,65.46
2019-06-10T08:03:22.453Z,65.71
2019-06-10T08:05:52.530Z,66.99
2019-06-10T08:08:23.473Z,66.49
2019-06-10T08:10:52.922Z,66.90
2019-06-10T08:13:22.615Z,67.57
2019-06-10T08:15:53.222Z,65.94
2019-06-10T08:18:22.501Z,66.12
2019-06-10T08:20:52.791Z,66.47
2019-06-10T08:23:23.575Z,67.27
2019-06-10T08:25:56.899Z,66.40
2019-06-10T08:28:23.145Z,64.94
2019-06-10T08:30:53.216Z,65.13
2019-06-10T08:33:22.671Z,65.96
2019-06-10T08:35:57.381Z,64.68
2019-06-10T08:38:23.110Z,64.81
2019-06-10T08:40:52.506Z,64.47
2019-06-10T08:43:22.592Z,65.54
2019-06-10T08:45:53.012Z,66.05
2019-06-10T08:48:22.749Z,66.74
2019-06-10T08:50:53.041Z,68.64
2019-06-10T08:53:22.711Z,64.65
2019-06-10T08:55:53.509Z,65.36
2019-06-10T08:58:23.101Z,64.77
2019-06-10T09:00:53.581Z,66.82
2019-06-10T09:03:23.370Z,65.74
2019-06-10T09:05:54.472Z,66.03
2019-06-10T09:08:23.498Z,65.90
2019-06-10T09:10:54.942Z,64.38
2019-06-10T09:13:22.500Z,62.91
2019-06-10T09:16:10.141Z,64.56
2019-06-10T09:18:23.244Z,64.13
2019-06-10T09:20:55.690Z,64.83
2019-06-10T09:23:24.825Z,66.72
2019-06-10T09:25:56.474Z,62.76
2019-06-10T09:28:23.500Z,62.84
2019-06-10T09:30:57.983Z,62.85
2019-06-10T09:33:23.098Z,64.59
2019-06-10T09:35:54.839Z,64.62
2019-06-10T09:38:22.321Z,61.99
2019-06-10T09:41:00.734Z,62.88
2019-06-10T09:43:22.728Z,59.86
2019-06-10T09:45:56.319Z,62.74
2019-06-10T09:48:24.952Z,64.58
2019-06-10T09:50:58.810Z,63.64
2019-06-10T09:53:32.768Z,60.09
2019-06-10T09:55:55.514Z,62.87
2019-06-10T09:58:24.281Z,64.31
2019-06-10T10:00:58.453Z,63.55
2019-06-10T10:03:27.259Z,65.40
2019-06-10T10:06:10.241Z,62.17
2019-06-10T10:08:26.067Z,59.30
2019-06-10T10:10:58.589Z,66.14
2019-06-10T10:13:25.536Z,63.70
2019-06-10T10:15:54.426Z,64.06
2019-06-10T10:18:23.671Z,60.52
2019-06-10T10:20:58.348Z,58.88
2019-06-10T10:23:22.835Z,60.89
2019-06-10T10:25:56.605Z,61.15
2019-06-10T10:28:25.369Z,60.92
2019-06-10T10:30:57.106Z,62.76
2019-06-10T10:33:26.865Z,62.17
2019-06-10T10:35:52.745Z,60.95
2019-06-10T10:38:22.902Z,62.34
2019-06-10T10:40:56.476Z,61.58
2019-06-10T10:43:28.435Z,60.88
2019-06-10T10:45:59.671Z,60.64
2019-06-10T10:48:22.668Z,61.34
2019-06-10T10:50:55.487Z,58.87
2019-06-10T10:53:23.830Z,58.37
2019-06-10T10:55:52.426Z,59.95
2019-06-10T10:58:22.947Z,61.86
2019-06-10T11:00:54.467Z,58.30
2019-06-10T11:03:22.878Z,59.24
2019-06-10T11:05:57.473Z,55.60
2019-06-10T11:08:22.812Z,58.63
2019-06-10T11:10:57.798Z,58.57
2019-06-10T11:13:26.267Z,59.08
2019-06-10T11:15:56.384Z,57.46
2019-06-10T11:18:24.501Z,56.18
2019-06-10T11:20:54.129Z,56.03
2019-06-10T11:23:23.064Z,56.86
2019-06-10T11:25:56.579Z,56.42
2019-06-10T11:28:22.919Z,55.98
2019-06-10T11:30:55.433Z,57.35
2019-06-10T11:33:22.724Z,54.52
2019-06-10T11:35:54.961Z,54.77
2019-06-10T11:38:23.446Z,55.98
2019-06-10T11:40:55.944Z,56.00
2019-06-10T11:43:22.745Z,55.74
2019-06-10T11:45:58.915Z,57.74
2019-06-10T11:48:23.638Z,56.43
2019-06-10T11:50:54.838Z,56.64
2019-06-10T11:53:22.929Z,54.66
2019-06-10T11:55:51.806Z,54.86
2019-06-10T11:58:22.343Z,53.24
2019-06-10T12:00:54.297Z,54.42
2019-06-10T12:03:23.048Z,54.22
2019-06-10T12:05:53.813Z,54.81
2019-06-10T12:08:23.608Z,53.59
2019-06-10T12:10:56.909Z,54.88
2019-06-10T12:13:22.625Z,55.04
2019-06-10T12:16:32.728Z,58.17
2019-06-10T12:18:22.938Z,56.51
2019-06-10T12:20:55.967Z,59.27
2019-06-10T12:23:22.267Z,61.85
2019-06-10T12:25:54.568Z,59.03
2019-06-10T12:28:21.130Z,60.04
2019-06-10T12:30:51.210Z,62.40
2019-06-10T12:33:22.252Z,59.40
2019-06-10T12:35:51.802Z,59.01
2019-06-10T12:38:22.792Z,59.37
2019-06-10T12:40:52.420Z,59.12
2019-06-10T12:43:22.952Z,59.75
2019-06-10T12:45:53.924Z,58.33
2019-06-10T12:48:22.197Z,59.60
2019-06-10T12:50:53.264Z,60.43
2019-06-10T12:53:22.811Z,57.68
2019-06-10T12:55:53.662Z,60.73
2019-06-10T12:58:22.637Z,61.89
2019-06-10T13:00:53.254Z,61.55
2019-06-10T13:03:23.721Z,61.42
2019-06-10T13:05:53.211Z,61.00
2019-06-10T13:08:23.866Z,62.81
2019-06-10T13:10:53.219Z,60.92
2019-06-10T13:13:22.653Z,63.93
2019-06-10T13:15:53.295Z,62.27
2019-06-10T13:18:23.859Z,60.69
2019-06-10T13:20:53.833Z,60.09
2019-06-10T13:23:30.463Z,62.88
2019-06-10T13:25:58.017Z,61.22
2019-06-10T13:28:22.592Z,61.44
2019-06-10T13:30:54.320Z,61.92
2019-06-10T13:33:22.954Z,61.66
2019-06-10T13:35:53.735Z,64.92
2019-06-10T13:38:25.368Z,63.73
2019-06-10T13:40:53.298Z,64.11
2019-06-10T13:43:23.093Z,64.82
2019-06-10T13:45:53.223Z,62.69
2019-06-10T13:48:25.673Z,64.51
2019-06-10T13:50:52.820Z,62.93
2019-06-10T13:53:21.562Z,63.00
2019-06-10T13:55:56.964Z,62.84
2019-06-10T13:58:22.856Z,59.27
2019-06-10T14:00:53.348Z,60.05
2019-06-10T14:03:22.761Z,60.71
2019-06-10T14:05:57.788Z,58.50
2019-06-10T14:08:23.052Z,62.08
2019-06-10T14:10:53.660Z,60.70
2019-06-10T14:13:23.526Z,60.98
2019-06-10T14:15:53.456Z,59.51
2019-06-10T14:18:23.165Z,60.35
2019-06-10T14:20:53.049Z,60.55
2019-06-10T14:23:22.306Z,61.35
2019-06-10T14:25:52.613Z,61.40
2019-06-10T14:28:38.067Z,60.34
2019-06-10T14:30:53.710Z,63.29
2019-06-10T14:33:23.297Z,62.13
2019-06-10T14:35:53.402Z,62.05
2019-06-10T14:38:22.370Z,64.11
2019-06-10T14:40:52.593Z,64.81
2019-06-10T14:43:23.251Z,63.64
2019-06-10T14:45:53.368Z,62.87
2019-06-10T14:48:23.484Z,62.08
2019-06-10T14:50:52.197Z,63.56
2019-06-10T14:53:22.926Z,63.13
2019-06-10T14:55:53.298Z,62.77
2019-06-10T14:58:23.081Z,61.34
2019-06-10T15:00:54.349Z,60.91
2019-06-10T15:03:21.471Z,62.36
2019-06-10T15:05:52.671Z,61.45
2019-06-10T15:08:22.809Z,62.06
2019-06-10T15:10:52.547Z,61.32
2019-06-10T15:13:23.154Z,62.92
2019-06-10T15:15:53.100Z,63.98
2019-06-10T15:18:23.626Z,62.88
2019-06-10T15:20:53.537Z,62.76
2019-06-10T15:23:23.429Z,66.88
2019-06-10T15:25:55.896Z,67.70
2019-06-10T15:28:23.525Z,64.95
2019-06-10T15:30:52.828Z,67.28
2019-06-10T15:33:23.577Z,65.94
2019-06-10T15:35:53.354Z,65.68
2019-06-10T15:38:23.132Z,66.48
2019-06-10T15:40:53.163Z,65.16
2019-06-10T15:43:23.489Z,65.95
2019-06-10T15:45:52.932Z,68.24
2019-06-10T15:48:25.113Z,66.49
2019-06-10T15:50:51.784Z,69.66
2019-06-10T15:53:21.546Z,67.68
2019-06-10T15:56:12.173Z,70.10
2019-06-10T15:58:21.774Z,71.17
2019-06-10T16:00:53.349Z,71.79
2019-06-10T16:03:24.800Z,69.01
2019-06-10T16:05:52.821Z,68.83
2019-06-10T16:08:22.505Z,67.04
2019-06-10T16:10:52.598Z,67.07
2019-06-10T16:13:25.390Z,69.98
2019-06-10T16:15:53.195Z,70.69
2019-06-10T16:18:25.975Z,68.20
2019-06-10T16:20:52.704Z,70.62
2019-06-10T16:23:24.500Z,70.24
2019-06-10T16:25:53.387Z,69.08
2019-06-10T16:28:23.471Z,67.00
2019-06-10T16:30:53.818Z,66.59
2019-06-10T16:33:26.114Z,67.53
2019-06-10T16:35:52.688Z,67.84
2019-06-10T16:38:23.745Z,68.78
2019-06-10T16:40:53.713Z,68.84
2019-06-10T16:43:24.119Z,69.69
2019-06-10T16:45:52.529Z,71.81
2019-06-10T16:48:21.650Z,72.90
2019-06-10T16:50:54.047Z,71.33
2019-06-10T16:53:24.161Z,74.47
2019-06-10T16:55:52.926Z,73.81
2019-06-10T16:58:23.686Z,72.93
2019-06-10T17:00:51.243Z,72.83
2019-06-10T17:03:22.772Z,72.11
2019-06-10T17:05:50.022Z,73.50
2019-06-10T17:08:19.814Z,73.22
2019-06-10T17:10:48.752Z,71.29
2019-06-10T17:13:19.004Z,70.96
2019-06-10T17:15:47.544Z,73.06
2019-06-10T17:18:15.981Z,72.13
2019-06-10T17:20:44.467Z,72.63
2019-06-10T17:23:26.501Z,74.13
2019-06-10T17:25:56.503Z,70.66
2019-06-10T17:28:30.836Z,70.95
2019-06-10T17:30:58.009Z,71.44
2019-06-10T17:33:28.354Z,70.35
2019-06-10T17:35:56.876Z,69.21
2019-06-10T17:38:26.742Z,70.40
2019-06-10T17:40:55.409Z,71.47
2019-06-10T17:43:25.202Z,71.95
2019-06-10T17:45:53.917Z,73.04
2019-06-10T17:48:24.188Z,73.34
2019-06-10T17:50:52.806Z,73.24
2019-06-10T17:53:22.255Z,71.80
2019-06-10T17:55:51.001Z,72.09
2019-06-10T17:58:31.770Z,70.29
2019-06-10T18:00:49.723Z,67.76
2019-06-10T18:03:18.247Z,67.19
2019-06-10T18:05:46.752Z,65.83
2019-06-10T18:08:15.212Z,64.71
2019-06-10T18:10:43.722Z,63.27
2019-06-10T18:13:16.271Z,65.19
2019-06-10T18:15:42.689Z,63.46
2019-06-10T18:18:12.968Z,62.32
2019-06-10T18:20:44.103Z,60.29
2019-06-10T18:23:13.463Z,60.82
2019-06-10T18:25:43.330Z,64.88
2019-06-10T18:28:12.186Z,65.46
2019-06-10T18:30:43.317Z,69.63
2019-06-10T18:33:11.014Z,67.60
2019-06-10T18:35:39.504Z,65.74
2019-06-10T18:38:08.087Z,66.46
2019-06-10T18:40:36.551Z,66.91
2019-06-10T18:43:05.462Z,70.14
2019-06-10T18:45:36.842Z,72.21
2019-06-10T18:48:04.347Z,71.99
2019-06-10T18:50:35.957Z,72.97
2019-06-10T18:53:04.193Z,72.85
2019-06-10T18:55:35.956Z,73.33
2019-06-10T18:58:03.264Z,70.54
2019-06-10T19:00:51.605Z,69.76
2019-06-10T19:03:12.611Z,70.68
2019-06-10T19:05:36.289Z,72.09
2019-06-10T19:08:04.607Z,71.97
2019-06-10T19:10:34.262Z,72.36
2019-06-10T19:13:03.418Z,69.27
2019-06-10T19:15:32.080Z,70.99
2019-06-10T19:18:02.967Z,72.70
2019-06-10T19:20:36.443Z,73.23
2019-06-10T19:23:02.434Z,73.85
2019-06-10T19:25:33.762Z,73.56
2019-06-10T19:28:01.572Z,72.01
2019-06-10T19:30:33.535Z,70.95
2019-06-10T19:33:02.451Z,72.54
2019-06-10T19:35:33.631Z,68.66
2019-06-10T19:38:02.306Z,68.42
2019-06-10T19:40:32.533Z,68.08
2019-06-10T19:43:03.292Z,68.39
2019-06-10T19:45:32.127Z,69.48
2019-06-10T19:48:03.177Z,69.98
2019-06-10T19:50:34.016Z,72.08
2019-06-10T19:53:04.199Z,72.84
2019-06-10T19:55:33.776Z,72.22
2019-06-10T19:58:03.729Z,71.87
2019-06-10T20:00:33.097Z,72.16
2019-06-10T20:03:03.022Z,69.60
2019-06-10T20:05:32.642Z,70.33
2019-06-10T20:08:03.077Z,71.58
2019-06-10T20:10:32.541Z,71.81
2019-06-10T20:13:01.224Z,71.09
2019-06-10T20:15:29.727Z,72.74
2019-06-10T20:17:58.220Z,74.23
2019-06-10T20:20:26.766Z,73.88
2019-06-10T20:22:57.570Z,73.88
2019-06-10T20:25:25.579Z,73.06
2019-06-10T20:27:54.028Z,72.52
2019-06-10T20:30:28.278Z,70.60
2019-06-10T20:32:56.255Z,70.24
2019-06-10T20:35:23.531Z,69.12
2019-06-10T20:37:53.931Z,67.98
2019-06-10T20:40:22.771Z,67.96
2019-06-10T20:42:51.296Z,68.67
2019-06-10T20:45:22.965Z,67.81
2019-06-10T20:47:53.097Z,68.82
2019-06-10T20:50:21.442Z,70.29
2019-06-10T20:52:52.270Z,69.12
2019-06-10T20:55:20.131Z,68.18
2019-06-10T20:57:58.970Z,68.02
2019-06-10T21:00:33.732Z,68.09
2019-06-10T21:03:03.204Z,67.75
2019-06-10T21:05:33.670Z,67.74
2019-06-10T21:08:04.678Z,68.13
2019-06-10T21:10:37.244Z,67.92
2019-06-10T21:13:07.430Z,68.02
2019-06-10T21:15:37.335Z,68.09
2019-06-10T21:18:06.357Z,68.00
2019-06-10T21:20:34.868Z,67.89
2019-06-10T21:23:03.561Z,67.81
2019-06-10T21:25:32.679Z,67.91
2019-06-10T21:28:03.242Z,68.00
2019-06-10T21:30:41.375Z,67.88
2019-06-10T21:33:03.646Z,67.65
2019-06-10T21:35:34.288Z,68.45
2019-06-10T21:38:03.015Z,69.23
2019-06-10T21:40:33.069Z,69.73
2019-06-10T21:43:02.781Z,70.47
2019-06-10T21:45:32.512Z,71.18
2019-06-10T21:48:02.282Z,72.03
2019-06-10T21:50:33.274Z,72.55
2019-06-10T21:53:03.012Z,73.41
2019-06-10T21:55:33.095Z,73.49
2019-06-10T21:58:03.641Z,73.98
2019-06-10T22:00:55.602Z,73.72
2019-06-10T22:03:13.477Z,73.66
2019-06-10T22:05:43.791Z,73.49
2019-06-10T22:08:12.633Z,73.47
2019-06-10T22:10:42.536Z,73.27
2019-06-10T22:13:12.354Z,72.59
2019-06-10T22:15:42.424Z,72.21
2019-06-10T22:18:12.585Z,71.96
2019-06-10T22:20:42.894Z,71.77
2019-06-10T22:23:12.813Z,71.64
2019-06-10T22:25:41.517Z,71.61
2019-06-10T22:28:09.954Z,71.94
2019-06-10T22:30:38.432Z,72.05
2019-06-10T22:33:06.932Z,72.23
2019-06-10T22:35:35.415Z,72.33
2019-06-10T22:38:03.871Z,72.29
2019-06-10T22:40:32.809Z,71.79
2019-06-10T22:43:03.015Z,71.59
2019-06-10T22:45:32.353Z,71.42
2019-06-10T22:48:03.016Z,71.38
2019-06-10T22:50:32.330Z,71.35
2019-06-10T22:53:03.541Z,70.95
2019-06-10T22:55:32.168Z,70.98
2019-06-10T22:58:03.192Z,70.44
2019-06-10T23:00:31.108Z,70.27
2019-06-10T23:02:59.614Z,70.13
2019-06-10T23:05:28.128Z,70.54
2019-06-10T23:07:57.395Z,71.28
2019-06-10T23:10:26.223Z,72.28
2019-06-10T23:12:56.541Z,73.11
2019-06-10T23:15:24.966Z,73.56
2019-06-10T23:17:55.332Z,73.86
2019-06-10T23:20:23.616Z,74.07
2019-06-10T23:22:54.388Z,72.63
2019-06-10T23:25:22.285Z,71.58
2019-06-10T23:27:53.316Z,70.98
2019-06-10T23:30:22.366Z,70.42
2019-06-10T23:32:54.256Z,70.77
2019-06-10T23:35:23.074Z,70.74
2019-06-10T23:37:54.825Z,70.99
2019-06-10T23:40:23.438Z,70.92
2019-06-10T23:42:53.101Z,71.15
2019-06-10T23:45:22.422Z,71.34
2019-06-10T23:47:52.945Z,71.49
2019-06-10T23:50:22.492Z,71.71
2019-06-10T23:52:54.099Z,71.57
2019-06-10T23:55:22.762Z,71.51
2019-06-10T23:57:53.049Z,71.38
